首页
METAR-TAF:

METAR-TAF

机场 :

深圳宝安国际机场

深圳, 中华人民共和国

纬度: 22-33N, 经度: 114-06E, 海拔: 18米

当前天气观测

该预报发布于51分钟前的20:00 UTC
风速2节,风向北转东北
温度 27°C
湿度 94%
气压 1002 hPa
能見度: 5000
散云层高于1600英尺
多云层高于4000英尺
轻雾

METAR: ZGSZ 192000Z 02001MPS 5000 BR SCT016 BKN040 27/26 Q1002 NOSIG

时间: 04:51 (20:51 UTC)

预报

该预报发布于5小时和45分钟前的15:06 UTC
预报有效从19日的 18点(UTC)到 20日的 18点(UTC)
风速8节,风向
能見度: 6000
散云层高于3000英尺
短暂存在
从 19日的 19点(UTC)到 19日的 23点(UTC)
散云层高于1500英尺
少量云层高于2000英尺, 积雨云.
多云层高于3000英尺
雷暴, 小雨

TAF: ZGSZ 191506Z 1918/2018 18004MPS 6000 SCT030 TX32/2006Z TN27/1922Z TEMPO 1919/1923 -TSRA SCT015 FEW020CB BKN030

超过4000个机场的气象观测和天气预报(METAR&TAF报告)。

可查询的气象台以黄色和红色小点在地图上表示。

将鼠标移到小点上方,可查看气象台名称。

然后点击查看天气观测和预报。

如需切换地图:点击带黑十字的绿色按钮放大地图;点击带横线的绿色按钮缩小地图;或者点击绿色箭头查看邻近地区的地图。


METAR-TAF: